Time;durP1;ratioP1;P1;durP2;ratioP2;P2;SDS_P1;SDS_P2;PMS_P1;PMS_P2;Temp;Humidity;BMP_temperature;BMP_pressure;BME280_temperature;BME280_humidity;BME280_pressure;Samples;Min_cycle;Max_cycle;Signal;HPM_P1;HPM_P2
2022/01/29 00:01:08;;;;;;;13.3;19.8;;;;;;;0.8;76.1;99660;;;;
2022/01/29 00:12:08;;;;;;;13.3;19.8;;;;;;;0.8;75.8;99650;;;;
2022/01/29 00:22:08;;;;;;;12.9;16.3;;;;;;;0.8;76;99660;;;;
2022/01/29 00:32:08;;;;;;;12.9;16.3;;;;;;;0.7;76.2;99670;;;;
2022/01/29 00:43:08;;;;;;;12.9;16.3;;;;;;;0.5;74.8;99680;;;;
2022/01/29 00:54:08;;;;;;;11.6;16.2;;;;;;;0.5;74.1;99680;;;;
2022/01/29 01:04:08;;;;;;;11.6;16.2;;;;;;;0.2;74.7;99680;;;;
2022/01/29 01:15:08;;;;;;;11.6;16.2;;;;;;;0;75.3;99670;;;;
2022/01/29 01:25:08;;;;;;;8.8;14.9;;;;;;;-0.2;75.8;99650;;;;
2022/01/29 01:35:15;;;;;;;8.8;14.9;;;;;;;-0.3;76.2;99650;;;;
2022/01/29 01:45:08;;;;;;;8.8;14.9;;;;;;;-0.5;76.3;99650;;;;
2022/01/29 01:55:08;;;;;;;10.4;15.1;;;;;;;-0.5;75.7;99630;;;;
2022/01/29 02:06:08;;;;;;;10.4;15.1;;;;;;;-0.7;75.9;99630;;;;
2022/01/29 02:17:09;;;;;;;10.4;15.1;;;;;;;-0.8;76;99640;;;;
2022/01/29 02:27:08;;;;;;;9.5;12.8;;;;;;;-1;77;99640;;;;
2022/01/29 02:37:08;;;;;;;9.5;12.8;;;;;;;-1.1;77.2;99660;;;;
2022/01/29 02:48:08;;;;;;;9.5;12.8;;;;;;;-1.3;77.3;99660;;;;
2022/01/29 02:59:08;;;;;;;10.6;13.8;;;;;;;-1.2;77.7;99660;;;;
2022/01/29 03:10:08;;;;;;;10.6;13.8;;;;;;;-1;77.7;99660;;;;
2022/01/29 03:21:08;;;;;;;12.4;18;;;;;;;-1;77;99650;;;;
2022/01/29 03:32:08;;;;;;;12.4;18;;;;;;;-1.2;77.4;99630;;;;
2022/01/29 03:42:10;;;;;;;12.4;18;;;;;;;-1.3;77.2;99640;;;;
2022/01/29 03:52:08;;;;;;;12.6;14.8;;;;;;;-1.3;77;99630;;;;
2022/01/29 04:02:08;;;;;;;12.6;14.8;;;;;;;-1.4;76.9;99630;;;;
2022/01/29 04:13:11;;;;;;;12.6;14.8;;;;;;;-1.6;77;99620;;;;
2022/01/29 04:23:08;;;;;;;12.4;16.4;;;;;;;-1.7;77.3;99620;;;;
2022/01/29 04:33:23;;;;;;;12.4;16.4;;;;;;;-1.8;77.4;99620;;;;
2022/01/29 04:43:08;;;;;;;12.4;16.4;;;;;;;-1.8;77.6;99610;;;;
2022/01/29 04:54:08;;;;;;;11.5;14.3;;;;;;;-1.9;77.9;99610;;;;
2022/01/29 05:05:08;;;;;;;11.5;14.3;;;;;;;-2;77.9;99600;;;;
2022/01/29 05:15:10;;;;;;;11.5;14.3;;;;;;;-1.9;77.7;99580;;;;
2022/01/29 05:36:08;;;;;;;11;15.9;;;;;;;-2;77.2;99560;;;;
2022/01/29 05:46:08;;;;;;;11;15.9;;;;;;;-2.1;77.1;99560;;;;
2022/01/29 05:56:08;;;;;;;10.3;18;;;;;;;-2.1;77.1;99570;;;;
2022/01/29 06:06:08;;;;;;;10.3;18;;;;;;;-2.2;77.2;99570;;;;
2022/01/29 06:16:09;;;;;;;10.3;18;;;;;;;-2.2;77.1;99550;;;;
2022/01/29 06:26:09;;;;;;;10;15;;;;;;;-2.2;77.6;99560;;;;
2022/01/29 06:36:09;;;;;;;10;15;;;;;;;-1.9;76.8;99560;;;;
2022/01/29 06:47:08;;;;;;;10;15;;;;;;;-1.6;76.3;99550;;;;
2022/01/29 06:58:08;;;;;;;9.7;13.5;;;;;;;-1.3;75.3;99540;;;;
2022/01/29 07:09:08;;;;;;;9.7;13.5;;;;;;;-1;75.1;99510;;;;
2022/01/29 07:19:09;;;;;;;9.7;13.5;;;;;;;-0.9;75;99510;;;;
2022/01/29 07:29:09;;;;;;;13.4;17.3;;;;;;;-1;75.1;99500;;;;
2022/01/29 07:40:08;;;;;;;13.4;17.3;;;;;;;-0.9;75;99500;;;;
2022/01/29 07:50:08;;;;;;;16.6;22.1;;;;;;;-0.8;75;99490;;;;
2022/01/29 08:01:08;;;;;;;16.6;22.1;;;;;;;-0.4;73;99470;;;;
2022/01/29 08:11:08;;;;;;;16.6;22.1;;;;;;;0;72.2;99460;;;;
2022/01/29 08:22:08;;;;;;;8.9;16.2;;;;;;;0.9;71.3;99450;;;;
2022/01/29 08:32:08;;;;;;;8.9;16.2;;;;;;;1.2;70.4;99440;;;;
2022/01/29 08:42:09;;;;;;;8.9;16.2;;;;;;;1.6;70.3;99440;;;;
2022/01/29 08:53:09;;;;;;;7.8;13.5;;;;;;;1.6;68.5;99420;;;;
2022/01/29 09:04:08;;;;;;;7.8;13.5;;;;;;;1.7;67.8;99410;;;;
2022/01/29 09:15:08;;;;;;;7.8;13.5;;;;;;;2.1;67.4;99410;;;;
2022/01/29 09:25:08;;;;;;;5.6;8.2;;;;;;;2.2;66.6;99390;;;;
2022/01/29 09:36:08;;;;;;;5.6;8.2;;;;;;;2.6;65.8;99380;;;;
2022/01/29 09:47:08;;;;;;;5.6;8.2;;;;;;;2.8;63.2;99360;;;;
2022/01/29 09:57:08;;;;;;;5.5;9.7;;;;;;;3.1;62.4;99350;;;;
2022/01/29 10:07:08;;;;;;;5.5;9.7;;;;;;;3.2;61.7;99320;;;;
2022/01/29 10:18:08;;;;;;;5.5;9.7;;;;;;;3.8;59.9;99300;;;;
2022/01/29 10:28:09;;;;;;;3.8;6.7;;;;;;;3.9;59.2;99310;;;;
2022/01/29 10:38:08;;;;;;;3.8;6.7;;;;;;;4.2;58.4;99280;;;;
2022/01/29 10:48:09;;;;;;;3.8;6.7;;;;;;;4.1;56.7;99260;;;;
2022/01/29 10:58:08;;;;;;;4.1;6.8;;;;;;;4.3;57.2;99250;;;;
2022/01/29 11:08:09;;;;;;;4.1;6.8;;;;;;;4.3;55;99240;;;;
2022/01/29 11:19:08;;;;;;;4;9;;;;;;;4.3;55.9;99220;;;;
2022/01/29 11:29:08;;;;;;;4;9;;;;;;;4.2;55.9;99190;;;;
2022/01/29 11:39:08;;;;;;;4;9;;;;;;;4.1;57.6;99160;;;;
2022/01/29 11:49:08;;;;;;;5.5;9.7;;;;;;;4.4;58.2;99130;;;;
2022/01/29 12:00:08;;;;;;;5.5;9.7;;;;;;;4.5;58.7;99100;;;;
2022/01/29 12:10:10;;;;;;;5.5;9.7;;;;;;;4.5;60.5;99090;;;;
2022/01/29 12:21:09;;;;;;;6.9;12.3;;;;;;;4.8;61.1;99060;;;;
2022/01/29 12:31:09;;;;;;;6.9;12.3;;;;;;;4.8;60.2;99040;;;;
2022/01/29 12:42:23;;;;;;;6.9;12.3;;;;;;;4.4;60.1;99020;;;;
2022/01/29 12:52:09;;;;;;;6.9;13.3;;;;;;;4.3;61.3;99000;;;;
2022/01/29 13:03:09;;;;;;;6.9;13.3;;;;;;;4;62.1;98990;;;;
2022/01/29 13:13:08;;;;;;;6.9;13.3;;;;;;;3.9;63.1;98970;;;;
2022/01/29 13:24:09;;;;;;;7.3;11;;;;;;;3.7;64;98950;;;;
2022/01/29 13:34:09;;;;;;;7.3;11;;;;;;;3.5;65.7;98940;;;;
2022/01/29 13:44:09;;;;;;;7.3;11;;;;;;;3.4;67.2;98940;;;;
2022/01/29 13:55:09;;;;;;;6.8;11.4;;;;;;;3.2;69.5;98920;;;;
2022/01/29 14:06:08;;;;;;;6.8;11.4;;;;;;;3;70.8;98900;;;;
2022/01/29 14:16:09;;;;;;;6.8;11.4;;;;;;;3;71.2;98880;;;;
2022/01/29 14:26:09;;;;;;;8.8;17;;;;;;;2.8;71.5;98850;;;;
2022/01/29 14:36:09;;;;;;;8.8;17;;;;;;;2.7;71.9;98820;;;;
2022/01/29 14:46:09;;;;;;;8.8;17;;;;;;;2.9;71.3;98800;;;;
2022/01/29 14:57:09;;;;;;;9.2;14.7;;;;;;;2.8;70.6;98780;;;;
2022/01/29 15:08:10;;;;;;;9.2;14.7;;;;;;;2.7;70.3;98760;;;;
2022/01/29 15:18:09;;;;;;;7.7;14.3;;;;;;;2.7;69.2;98730;;;;
2022/01/29 15:29:09;;;;;;;7.7;14.3;;;;;;;2.6;69.3;98710;;;;
2022/01/29 15:39:09;;;;;;;7.7;14.3;;;;;;;2.7;69.1;98670;;;;
2022/01/29 15:49:09;;;;;;;8.1;11.6;;;;;;;2.7;69.1;98650;;;;
2022/01/29 16:00:09;;;;;;;8.1;11.6;;;;;;;2.7;69;98630;;;;
2022/01/29 16:10:09;;;;;;;8.1;11.6;;;;;;;2.7;70.2;98620;;;;
2022/01/29 16:20:09;;;;;;;7.6;10.8;;;;;;;2.7;70.8;98610;;;;
2022/01/29 16:31:09;;;;;;;7.6;10.8;;;;;;;2.7;71.5;98600;;;;
2022/01/29 16:42:09;;;;;;;7.6;10.8;;;;;;;2.5;74.7;98580;;;;
2022/01/29 16:53:09;;;;;;;9.1;12.9;;;;;;;2.3;76.6;98570;;;;
2022/01/29 17:04:09;;;;;;;9.1;12.9;;;;;;;2.1;78.1;98540;;;;
2022/01/29 17:14:09;;;;;;;9.1;12.9;;;;;;;2;78.9;98530;;;;
2022/01/29 17:25:09;;;;;;;10.5;15.1;;;;;;;1.9;80.2;98500;;;;
2022/01/29 17:35:09;;;;;;;10.5;15.1;;;;;;;2.1;79.6;98470;;;;
2022/01/29 17:46:09;;;;;;;10.5;15.1;;;;;;;2.1;79.9;98440;;;;
2022/01/29 17:57:09;;;;;;;8.5;10.4;;;;;;;2.2;79.9;98400;;;;
2022/01/29 18:07:09;;;;;;;8.5;10.4;;;;;;;2.3;79.5;98390;;;;
2022/01/29 18:17:09;;;;;;;8.5;10.4;;;;;;;2.4;78.9;98340;;;;
2022/01/29 18:28:14;;;;;;;8.2;10.9;;;;;;;2.5;77.7;98290;;;;
2022/01/29 18:38:12;;;;;;;8.2;10.9;;;;;;;2.7;77.1;98270;;;;
2022/01/29 18:48:09;;;;;;;8.7;12.3;;;;;;;2.8;76.6;98230;;;;
2022/01/29 18:58:09;;;;;;;8.7;12.3;;;;;;;2.9;76.3;98250;;;;
2022/01/29 19:09:10;;;;;;;8.7;12.3;;;;;;;3;76.5;98280;;;;
2022/01/29 19:19:09;;;;;;;9.4;12.6;;;;;;;3.1;76.6;98270;;;;
2022/01/29 19:29:09;;;;;;;9.4;12.6;;;;;;;3.1;77.4;98260;;;;
2022/01/29 19:40:09;;;;;;;9.4;12.6;;;;;;;3.1;77.2;98270;;;;
2022/01/29 19:51:09;;;;;;;10.4;12.5;;;;;;;3.2;76.7;98240;;;;
2022/01/29 20:01:09;;;;;;;10.4;12.5;;;;;;;3.2;76.4;98200;;;;
2022/01/29 20:11:11;;;;;;;10.4;12.5;;;;;;;3.3;75.9;98200;;;;
2022/01/29 20:22:09;;;;;;;7.5;11.2;;;;;;;3.5;75.3;98190;;;;
2022/01/29 20:33:09;;;;;;;7.5;11.2;;;;;;;3.8;74.8;98190;;;;
2022/01/29 20:44:09;;;;;;;7.5;11.2;;;;;;;4.1;75.6;98210;;;;
2022/01/29 20:55:09;;;;;;;7.2;10.5;;;;;;;4.2;75.7;98150;;;;
2022/01/29 21:06:09;;;;;;;7.2;10.5;;;;;;;4.2;74.8;98080;;;;
2022/01/29 21:16:09;;;;;;;7.2;10.5;;;;;;;4.2;74.2;98050;;;;
2022/01/29 21:27:09;;;;;;;5.1;8.6;;;;;;;4.1;73.4;98010;;;;
2022/01/29 21:38:09;;;;;;;5.1;8.6;;;;;;;4.1;74;98030;;;;
2022/01/29 21:49:09;;;;;;;4.3;6.6;;;;;;;4;75.5;98030;;;;
2022/01/29 21:59:09;;;;;;;4.3;6.6;;;;;;;3.8;78.1;98020;;;;
2022/01/29 22:10:09;;;;;;;4.3;6.6;;;;;;;3.8;78.7;98020;;;;
2022/01/29 22:20:09;;;;;;;4.6;6.9;;;;;;;3.8;78.6;97990;;;;
2022/01/29 22:30:09;;;;;;;4.6;6.9;;;;;;;3.9;78.1;97950;;;;
2022/01/29 22:41:09;;;;;;;4.6;6.9;;;;;;;4;77.8;97910;;;;
2022/01/29 22:52:09;;;;;;;3.9;6.6;;;;;;;4.1;77.5;97880;;;;
2022/01/29 23:03:09;;;;;;;3.9;6.6;;;;;;;4.3;77.2;97830;;;;
2022/01/29 23:14:12;;;;;;;3.9;6.6;;;;;;;4.5;76.3;97790;;;;
2022/01/29 23:24:11;;;;;;;3;6.1;;;;;;;4.6;75.6;97770;;;;
2022/01/29 23:35:09;;;;;;;3;6.1;;;;;;;4.9;74.8;97720;;;;
2022/01/29 23:46:27;;;;;;;3;6.1;;;;;;;5.6;72.3;97710;;;;
2022/01/29 23:57:09;;;;;;;2.2;4.3;;;;;;;6.2;69.6;97710;;;;
